Time,TemperatureF,DewpointF,PressureIn,WindDirection,WindDirectionDegrees,WindSpeedMPH,WindSpeedGustMPH,Humidity,HourlyPrecipIn,Conditions,Clouds,dailyrainin,SolarRadiationWatts/m^2,SoftwareType,DateUTC
2013-05-24 00:01:00,35.0,34.0,-100.00,SE,137,3.0,10.0,97,0.00,,,-99.99,0.000000,,2013-05-24 07:01:00,
2013-05-24 00:11:00,35.0,34.0,-100.00,SE,137,3.0,10.0,97,0.00,,,-99.99,0.000000,,2013-05-24 07:11:00,
2013-05-24 00:32:00,36.0,34.0,-100.00,SW,226,6.0,15.0,93,0.00,,,0.12,0.000000,,2013-05-24 07:32:00,
2013-05-24 00:42:00,36.0,34.0,-100.00,SW,226,6.0,15.0,93,0.00,,,0.12,0.000000,,2013-05-24 07:42:00,
2013-05-24 00:52:00,36.0,34.0,-100.00,SW,226,6.0,15.0,93,0.00,,,0.12,0.000000,,2013-05-24 07:52:00,
2013-05-24 01:02:00,36.0,34.0,-100.00,SW,226,6.0,15.0,93,0.00,,,0.12,0.000000,,2013-05-24 08:02:00,
2013-05-24 01:11:00,36.0,34.0,-100.00,SW,226,6.0,15.0,93,0.00,,,0.12,0.000000,,2013-05-24 08:11:00,
2013-05-24 01:33:00,35.0,34.0,-100.00,SSE,158,4.0,9.0,96,0.01,,,0.13,0.000000,,2013-05-24 08:33:00,
2013-05-24 01:42:00,35.0,34.0,-100.00,SSE,158,4.0,9.0,96,0.01,,,0.13,0.000000,,2013-05-24 08:42:00,
2013-05-24 01:52:00,35.0,34.0,-100.00,SSE,158,4.0,9.0,96,0.01,,,0.13,0.000000,,2013-05-24 08:52:00,
2013-05-24 02:01:00,35.0,34.0,-100.00,SSE,158,4.0,9.0,96,0.01,,,0.13,0.000000,,2013-05-24 09:01:00,
2013-05-24 02:11:00,35.0,34.0,-100.00,SSE,158,4.0,9.0,96,0.01,,,0.13,0.000000,,2013-05-24 09:11:00,
2013-05-24 02:33:00,34.0,33.0,-100.00,SE,135,5.0,7.0,97,0.00,,,0.13,0.000000,,2013-05-24 09:33:00,
2013-05-24 02:42:00,34.0,33.0,-100.00,SE,135,5.0,7.0,97,0.00,,,0.13,0.000000,,2013-05-24 09:42:00,
2013-05-24 02:53:00,34.0,33.0,-100.00,SE,135,5.0,7.0,97,0.00,,,0.13,0.000000,,2013-05-24 09:53:00,
2013-05-24 03:02:00,34.0,33.0,-100.00,SE,135,5.0,7.0,97,0.00,,,0.13,0.000000,,2013-05-24 10:02:00,
2013-05-24 03:12:00,34.0,33.0,-100.00,SE,135,5.0,7.0,97,0.00,,,0.13,0.000000,,2013-05-24 10:12:00,
2013-05-24 03:33:00,35.0,33.0,-100.00,SSE,148,7.0,10.0,93,0.00,,,0.13,0.000000,,2013-05-24 10:33:00,
2013-05-24 03:42:00,35.0,33.0,-100.00,SSE,148,7.0,10.0,93,0.00,,,0.13,0.000000,,2013-05-24 10:42:00,
2013-05-24 03:52:00,35.0,33.0,-100.00,SSE,148,7.0,10.0,93,0.00,,,0.13,0.000000,,2013-05-24 10:52:00,
2013-05-24 04:02:00,35.0,33.0,-100.00,SSE,148,7.0,10.0,93,0.00,,,0.13,0.000000,,2013-05-24 11:02:00,
2013-05-24 04:12:00,35.0,33.0,-100.00,SSE,148,7.0,10.0,93,0.00,,,0.13,0.000000,,2013-05-24 11:12:00,
2013-05-24 04:32:00,35.0,33.0,-100.00,SE,141,7.0,11.0,91,0.00,,,0.13,0.000000,,2013-05-24 11:32:00,
2013-05-24 04:42:00,35.0,33.0,-100.00,SE,141,7.0,11.0,91,0.00,,,0.13,0.000000,,2013-05-24 11:42:00,
2013-05-24 04:52:00,35.0,33.0,-100.00,SE,141,7.0,11.0,91,0.00,,,0.13,0.000000,,2013-05-24 11:52:00,
2013-05-24 05:01:00,35.0,33.0,-100.00,SE,141,7.0,11.0,91,0.00,,,0.13,0.000000,,2013-05-24 12:01:00,
2013-05-24 05:11:00,35.0,33.0,-100.00,SE,141,7.0,11.0,91,0.00,,,0.13,0.000000,,2013-05-24 12:11:00,
2013-05-24 05:33:00,36.0,33.0,-100.00,South,177,8.0,12.0,88,0.00,,,0.13,0.000000,,2013-05-24 12:33:00,
2013-05-24 05:42:00,36.0,33.0,-100.00,South,177,8.0,12.0,88,0.00,,,0.13,0.000000,,2013-05-24 12:42:00,
2013-05-24 05:52:00,36.0,33.0,-100.00,South,177,8.0,12.0,88,0.00,,,0.13,0.000000,,2013-05-24 12:52:00,
2013-05-24 06:02:00,36.0,33.0,-100.00,South,177,8.0,12.0,88,0.00,,,0.13,0.000000,,2013-05-24 13:02:00,
2013-05-24 06:11:00,36.0,33.0,-100.00,South,177,8.0,12.0,88,0.00,,,0.13,0.000000,,2013-05-24 13:11:00,
2013-05-24 06:32:00,36.0,33.0,-100.00,SSW,192,9.0,13.0,88,0.00,,,0.13,4.000000,,2013-05-24 13:32:00,
2013-05-24 06:42:00,36.0,33.0,-100.00,SSW,192,9.0,13.0,88,0.00,,,0.13,4.000000,,2013-05-24 13:42:00,
2013-05-24 06:52:00,36.0,33.0,-100.00,SSW,192,9.0,13.0,88,0.00,,,0.13,4.000000,,2013-05-24 13:52:00,
2013-05-24 07:01:00,36.0,33.0,-100.00,SSW,192,9.0,13.0,88,0.00,,,0.13,4.000000,,2013-05-24 14:01:00,
2013-05-24 07:11:00,36.0,33.0,-100.00,SSW,192,9.0,13.0,88,0.00,,,0.13,4.000000,,2013-05-24 14:11:00,
2013-05-24 07:32:00,36.0,33.0,-100.00,SSE,161,6.0,12.0,88,0.00,,,0.13,29.000000,,2013-05-24 14:32:00,
2013-05-24 07:42:00,36.0,33.0,-100.00,SSE,161,6.0,12.0,88,0.00,,,0.13,29.000000,,2013-05-24 14:42:00,
2013-05-24 07:52:00,36.0,33.0,-100.00,SSE,161,6.0,12.0,88,0.00,,,0.13,29.000000,,2013-05-24 14:52:00,
2013-05-24 08:02:00,36.0,33.0,-100.00,SSE,161,6.0,12.0,88,0.00,,,0.13,29.000000,,2013-05-24 15:02:00,
2013-05-24 08:11:00,36.0,33.0,-100.00,SSE,161,6.0,12.0,88,0.00,,,0.13,29.000000,,2013-05-24 15:11:00,
2013-05-24 08:33:00,39.0,35.0,-100.00,SSW,196,9.0,13.0,84,0.00,,,0.13,152.000000,,2013-05-24 15:33:00,
2013-05-24 08:43:00,39.0,35.0,-100.00,SSW,196,9.0,13.0,84,0.00,,,0.13,152.000000,,2013-05-24 15:43:00,
2013-05-24 08:52:00,39.0,35.0,-100.00,SSW,196,9.0,13.0,84,0.00,,,0.13,152.000000,,2013-05-24 15:52:00,
2013-05-24 09:03:00,39.0,35.0,-100.00,SSW,196,9.0,13.0,84,0.00,,,0.13,152.000000,,2013-05-24 16:03:00,
2013-05-24 09:12:00,39.0,35.0,-100.00,SSW,196,9.0,13.0,84,0.00,,,0.13,152.000000,,2013-05-24 16:12:00,
2013-05-24 09:32:00,44.0,36.0,-100.00,SW,223,7.0,17.0,72,0.00,,,0.13,443.000000,,2013-05-24 16:32:00,
2013-05-24 09:42:00,44.0,36.0,-100.00,SW,223,7.0,17.0,72,0.00,,,0.13,443.000000,,2013-05-24 16:42:00,
2013-05-24 09:52:00,44.0,36.0,-100.00,SW,223,7.0,17.0,72,0.00,,,0.13,443.000000,,2013-05-24 16:52:00,
2013-05-24 10:01:00,44.0,36.0,-100.00,SW,223,7.0,17.0,72,0.00,,,0.13,443.000000,,2013-05-24 17:01:00,
2013-05-24 10:12:00,44.0,36.0,-100.00,SW,223,7.0,17.0,72,0.00,,,0.13,443.000000,,2013-05-24 17:12:00,
2013-05-24 10:32:00,44.0,34.0,-100.00,SSW,209,10.0,19.0,68,0.00,,,0.13,538.000000,,2013-05-24 17:32:00,
2013-05-24 10:42:00,44.0,34.0,-100.00,SSW,209,10.0,19.0,68,0.00,,,0.13,538.000000,,2013-05-24 17:42:00,
2013-05-24 10:52:00,44.0,34.0,-100.00,SSW,209,10.0,19.0,68,0.00,,,0.13,538.000000,,2013-05-24 17:52:00,
2013-05-24 11:01:00,44.0,34.0,-100.00,SSW,209,10.0,19.0,68,0.00,,,0.13,538.000000,,2013-05-24 18:01:00,
2013-05-24 11:11:00,44.0,34.0,-100.00,SSW,209,10.0,19.0,68,0.00,,,0.13,538.000000,,2013-05-24 18:11:00,
2013-05-24 11:32:00,47.0,35.0,-100.00,SW,227,9.0,17.0,62,0.00,,,0.13,783.000000,,2013-05-24 18:32:00,
2013-05-24 11:42:00,47.0,35.0,-100.00,SW,227,9.0,17.0,62,0.00,,,0.13,783.000000,,2013-05-24 18:42:00,
2013-05-24 11:52:00,47.0,35.0,-100.00,SW,227,9.0,17.0,62,0.00,,,0.13,783.000000,,2013-05-24 18:52:00,
2013-05-24 12:01:00,47.0,35.0,-100.00,SW,227,9.0,17.0,62,0.00,,,0.13,783.000000,,2013-05-24 19:01:00,
2013-05-24 12:11:00,47.0,35.0,-100.00,SW,227,9.0,17.0,62,0.00,,,0.13,783.000000,,2013-05-24 19:11:00,
2013-05-24 12:32:00,50.0,34.0,-100.00,WSW,250,9.0,20.0,53,0.00,,,0.13,717.000000,,2013-05-24 19:32:00,
2013-05-24 12:42:00,50.0,34.0,-100.00,WSW,250,9.0,20.0,53,0.00,,,0.13,717.000000,,2013-05-24 19:42:00,
2013-05-24 12:52:00,50.0,34.0,-100.00,WSW,250,9.0,20.0,53,0.00,,,0.13,717.000000,,2013-05-24 19:52:00,
2013-05-24 13:02:00,50.0,34.0,-100.00,WSW,250,9.0,20.0,53,0.00,,,0.13,717.000000,,2013-05-24 20:02:00,
2013-05-24 13:11:00,50.0,34.0,-100.00,WSW,250,9.0,20.0,53,0.00,,,0.13,717.000000,,2013-05-24 20:11:00,
2013-05-24 13:32:00,49.0,31.0,-100.00,WSW,247,11.0,21.0,49,0.00,,,0.13,717.000000,,2013-05-24 20:32:00,
2013-05-24 13:42:00,49.0,31.0,-100.00,WSW,247,11.0,21.0,49,0.00,,,0.13,717.000000,,2013-05-24 20:42:00,
2013-05-24 13:52:00,49.0,31.0,-100.00,WSW,247,11.0,21.0,49,0.00,,,0.13,717.000000,,2013-05-24 20:52:00,
2013-05-24 14:01:00,49.0,31.0,-100.00,WSW,247,11.0,21.0,49,0.00,,,0.13,717.000000,,2013-05-24 21:01:00,
2013-05-24 14:11:00,49.0,31.0,-100.00,WSW,247,11.0,21.0,49,0.00,,,0.13,717.000000,,2013-05-24 21:11:00,
2013-05-24 14:33:00,51.0,30.0,-100.00,West,261,11.0,20.0,45,0.00,,,0.13,1021.000000,,2013-05-24 21:33:00,
2013-05-24 14:43:00,51.0,30.0,-100.00,West,261,11.0,20.0,45,0.00,,,0.13,1021.000000,,2013-05-24 21:43:00,
2013-05-24 14:53:00,51.0,30.0,-100.00,West,261,11.0,20.0,45,0.00,,,0.13,1021.000000,,2013-05-24 21:53:00,
2013-05-24 15:02:00,51.0,30.0,-100.00,West,261,11.0,20.0,45,0.00,,,0.13,1021.000000,,2013-05-24 22:02:00,
2013-05-24 15:12:00,51.0,30.0,-100.00,West,261,11.0,20.0,45,0.00,,,0.13,1021.000000,,2013-05-24 22:12:00,
2013-05-24 15:33:00,53.0,27.0,-100.00,WSW,255,11.0,21.0,37,0.00,,,0.13,894.000000,,2013-05-24 22:33:00,
2013-05-24 15:42:00,53.0,27.0,-100.00,WSW,255,11.0,21.0,37,0.00,,,0.13,894.000000,,2013-05-24 22:42:00,
2013-05-24 15:52:00,53.0,27.0,-100.00,WSW,255,11.0,21.0,37,0.00,,,0.13,894.000000,,2013-05-24 22:52:00,
2013-05-24 16:02:00,53.0,27.0,-100.00,WSW,255,11.0,21.0,37,0.00,,,0.13,894.000000,,2013-05-24 23:02:00,
2013-05-24 16:11:00,53.0,27.0,-100.00,WSW,255,11.0,21.0,37,0.00,,,0.13,894.000000,,2013-05-24 23:11:00,
2013-05-24 16:32:00,53.0,32.0,-100.00,West,281,13.0,19.0,44,0.00,,,0.13,805.000000,,2013-05-24 23:32:00,
2013-05-24 16:42:00,53.0,32.0,-100.00,West,281,13.0,19.0,44,0.00,,,0.13,805.000000,,2013-05-24 23:42:00,
2013-05-24 16:52:00,53.0,32.0,-100.00,West,281,13.0,19.0,44,0.00,,,0.13,805.000000,,2013-05-24 23:52:00,
2013-05-24 17:01:00,53.0,32.0,-100.00,West,281,13.0,19.0,44,0.00,,,0.13,805.000000,,2013-05-25 00:01:00,
2013-05-24 17:11:00,53.0,32.0,-100.00,West,281,13.0,19.0,44,0.00,,,0.13,805.000000,,2013-05-25 00:11:00,
2013-05-24 17:32:00,54.0,31.0,-100.00,WNW,298,10.0,17.0,41,0.00,,,0.13,676.000000,,2013-05-25 00:32:00,
2013-05-24 17:42:00,54.0,31.0,-100.00,WNW,298,10.0,17.0,41,0.00,,,0.13,676.000000,,2013-05-25 00:42:00,
2013-05-24 17:52:00,54.0,31.0,-100.00,WNW,298,10.0,17.0,41,0.00,,,0.13,676.000000,,2013-05-25 00:52:00,
2013-05-24 18:01:00,54.0,31.0,-100.00,WNW,298,10.0,17.0,41,0.00,,,0.13,676.000000,,2013-05-25 01:01:00,
2013-05-24 18:11:00,54.0,31.0,-100.00,WNW,298,10.0,17.0,41,0.00,,,0.13,676.000000,,2013-05-25 01:11:00,
2013-05-24 18:32:00,50.0,28.0,-100.00,WNW,289,8.0,17.0,43,0.00,,,0.13,420.000000,,2013-05-25 01:32:00,
2013-05-24 18:42:00,50.0,28.0,-100.00,WNW,289,8.0,17.0,43,0.00,,,0.13,420.000000,,2013-05-25 01:42:00,
2013-05-24 18:52:00,50.0,28.0,-100.00,WNW,289,8.0,17.0,43,0.00,,,0.13,420.000000,,2013-05-25 01:52:00,
2013-05-24 19:01:00,50.0,28.0,-100.00,WNW,289,8.0,17.0,43,0.00,,,0.13,420.000000,,2013-05-25 02:01:00,
2013-05-24 19:11:00,50.0,28.0,-100.00,WNW,289,8.0,17.0,43,0.00,,,0.13,420.000000,,2013-05-25 02:11:00,
2013-05-24 19:32:00,50.0,29.0,-100.00,West,279,11.0,15.0,44,0.00,,,0.13,375.000000,,2013-05-25 02:32:00,
2013-05-24 19:42:00,50.0,29.0,-100.00,West,279,11.0,15.0,44,0.00,,,0.13,375.000000,,2013-05-25 02:42:00,
2013-05-24 19:52:00,50.0,29.0,-100.00,West,279,11.0,15.0,44,0.00,,,0.13,375.000000,,2013-05-25 02:52:00,
2013-05-24 20:01:00,50.0,29.0,-100.00,West,279,11.0,15.0,44,0.00,,,0.13,375.000000,,2013-05-25 03:01:00,
2013-05-24 20:11:00,50.0,29.0,-100.00,West,279,11.0,15.0,44,0.00,,,0.13,375.000000,,2013-05-25 03:11:00,
2013-05-24 20:33:00,45.0,30.0,-100.00,West,280,10.0,17.0,56,0.00,,,0.13,65.000000,,2013-05-25 03:33:00,
2013-05-24 20:43:00,45.0,30.0,-100.00,West,280,10.0,17.0,56,0.00,,,0.13,65.000000,,2013-05-25 03:43:00,
2013-05-24 20:53:00,45.0,30.0,-100.00,West,280,10.0,17.0,56,0.00,,,0.13,65.000000,,2013-05-25 03:53:00,
2013-05-24 21:02:00,45.0,30.0,-100.00,West,280,10.0,17.0,56,0.00,,,0.13,65.000000,,2013-05-25 04:02:00,
2013-05-24 21:12:00,45.0,30.0,-100.00,West,280,10.0,17.0,56,0.00,,,0.13,65.000000,,2013-05-25 04:12:00,
2013-05-24 21:33:00,42.0,30.0,-100.00,West,272,7.0,14.0,61,0.00,,,0.11,7.000000,,2013-05-25 04:33:00,
2013-05-24 21:43:00,42.0,30.0,-100.00,West,272,7.0,14.0,61,0.00,,,0.11,7.000000,,2013-05-25 04:43:00,
2013-05-24 21:52:00,42.0,30.0,-100.00,West,272,7.0,14.0,61,0.00,,,0.11,7.000000,,2013-05-25 04:52:00,
2013-05-24 22:02:00,42.0,30.0,-100.00,West,272,7.0,14.0,61,0.00,,,0.11,7.000000,,2013-05-25 05:02:00,
2013-05-24 22:11:00,42.0,30.0,-100.00,West,272,7.0,14.0,61,0.00,,,0.11,7.000000,,2013-05-25 05:11:00,
2013-05-24 22:32:00,40.0,31.0,-100.00,WNW,293,7.0,11.0,69,0.00,,,0.01,0.000000,,2013-05-25 05:32:00,
2013-05-24 22:43:00,40.0,31.0,-100.00,WNW,293,7.0,11.0,69,0.00,,,0.01,0.000000,,2013-05-25 05:43:00,
2013-05-24 22:52:00,40.0,31.0,-100.00,WNW,293,7.0,11.0,69,0.00,,,0.01,0.000000,,2013-05-25 05:52:00,
2013-05-24 23:01:00,40.0,31.0,-100.00,WNW,293,7.0,11.0,69,0.00,,,0.01,0.000000,,2013-05-25 06:01:00,
2013-05-24 23:11:00,40.0,31.0,-100.00,WNW,293,7.0,11.0,69,0.00,,,0.01,0.000000,,2013-05-25 06:11:00,
2013-05-24 23:32:00,39.0,32.0,-100.00,NW,318,6.0,9.0,76,0.00,,,0.01,0.000000,,2013-05-25 06:32:00,
2013-05-24 23:42:00,39.0,32.0,-100.00,NW,318,6.0,9.0,76,0.00,,,0.01,0.000000,,2013-05-25 06:42:00,
2013-05-24 23:52:00,39.0,32.0,-100.00,NW,318,6.0,9.0,76,0.00,,,0.01,0.000000,,2013-05-25 06:52:00,